Time;durP1;ratioP1;P1;durP2;ratioP2;P2;SDS_P1;SDS_P2;PMS_P1;PMS_P2;Temp;Humidity;BMP_temperature;BMP_pressure;BME280_temperature;BME280_humidity;BME280_pressure;Samples;Min_cycle;Max_cycle;Signal;HPM_P1;HPM_P2
2022/11/03 00:01:09;;;;;;;21.38;3.20;;;11.10;99.90;;;;;;4974113;28;20101;-85
2022/11/03 00:03:35;;;;;;;14.07;3.00;;;11.00;99.90;;;;;;4991842;28;20546;-85
2022/11/03 00:06:05;;;;;;;15.85;3.50;;;11.00;99.90;;;;;;5009676;28;20045;-85
2022/11/03 00:08:41;;;;;;;12.88;2.60;;;11.00;99.90;;;;;;5003530;28;20533;-85
2022/11/03 00:11:12;;;;;;;10.48;2.50;;;11.00;99.90;;;;;;4977165;28;20037;-84
2022/11/03 00:13:40;;;;;;;11.90;2.60;;;11.00;99.90;;;;;;4976096;28;20042;-86
2022/11/03 00:16:06;;;;;;;14.50;3.00;;;11.00;99.90;;;;;;4992203;28;20073;-87
2022/11/03 00:18:32;;;;;;;11.27;2.63;;;11.00;99.90;;;;;;4991212;28;20130;-86
2022/11/03 00:21:04;;;;;;;11.85;2.58;;;11.00;99.90;;;;;;5006252;28;20034;-86
2022/11/03 00:23:32;;;;;;;13.50;2.67;;;11.00;99.90;;;;;;5004372;28;20953;-86
2022/11/03 00:26:09;;;;;;;16.00;3.33;;;11.00;99.90;;;;;;4988649;28;20038;-86
2022/11/03 00:28:36;;;;;;;15.18;3.13;;;11.00;99.90;;;;;;4991486;28;20042;-86
2022/11/03 00:31:13;;;;;;;13.55;2.85;;;11.00;99.90;;;;;;4967390;28;20054;-86
2022/11/03 00:33:39;;;;;;;12.88;2.85;;;11.10;99.90;;;;;;5007659;28;20049;-86
2022/11/03 00:36:07;;;;;;;13.75;2.58;;;11.10;99.90;;;;;;5006928;28;20103;-86
2022/11/03 00:38:33;;;;;;;16.00;3.22;;;11.10;99.90;;;;;;4991801;28;20060;-86
2022/11/03 00:41:00;;;;;;;11.05;2.88;;;11.10;99.90;;;;;;4989715;28;20030;-86
2022/11/03 00:43:28;;;;;;;14.38;3.25;;;11.10;99.90;;;;;;5006879;28;20045;-86
2022/11/03 00:45:54;;;;;;;12.88;2.55;;;11.00;99.90;;;;;;4972677;28;20126;-86
2022/11/03 00:48:29;;;;;;;12.10;2.88;;;11.00;99.90;;;;;;5001758;28;20136;-86
2022/11/03 00:51:01;;;;;;;14.32;2.97;;;11.00;99.90;;;;;;4973540;28;20038;-86
2022/11/03 00:53:28;;;;;;;18.13;3.20;;;11.00;99.90;;;;;;4990640;28;20049;-85
2022/11/03 00:55:54;;;;;;;14.55;3.10;;;11.00;99.90;;;;;;4976553;28;20521;-86
2022/11/03 00:58:20;;;;;;;12.65;3.30;;;11.20;99.90;;;;;;4983783;28;20117;-86
2022/11/03 01:00:46;;;;;;;15.23;3.28;;;11.00;99.90;;;;;;4976855;28;20039;-87
2022/11/03 01:03:11;;;;;;;13.82;2.88;;;11.00;99.90;;;;;;4978241;28;20038;-86
2022/11/03 01:08:34;;;;;;;12.52;2.78;;;11.00;99.90;;;;;;5006648;28;20339;-86
2022/11/03 01:14:05;;;;;;;13.18;2.53;;;10.90;99.90;;;;;;5007372;28;20061;-86
2022/11/03 01:16:31;;;;;;;13.02;3.00;;;11.20;99.90;;;;;;4988506;28;20428;-86
2022/11/03 01:18:57;;;;;;;14.45;3.42;;;10.90;99.90;;;;;;4988871;28;20100;-85
2022/11/03 01:21:23;;;;;;;15.43;2.95;;;10.90;99.90;;;;;;4989761;28;20042;-85
2022/11/03 01:23:49;;;;;;;13.95;3.20;;;10.90;99.90;;;;;;5005982;28;20042;-86
2022/11/03 01:26:15;;;;;;;13.63;2.88;;;10.90;99.90;;;;;;5008824;28;20488;-86
2022/11/03 01:28:43;;;;;;;14.73;3.38;;;10.90;99.90;;;;;;4968063;28;20506;-86
2022/11/03 01:31:13;;;;;;;13.70;3.05;;;10.90;99.90;;;;;;4990948;28;20042;-85
2022/11/03 01:33:39;;;;;;;13.48;3.33;;;11.00;99.90;;;;;;4990551;28;20081;-86
2022/11/03 01:36:05;;;;;;;14.65;3.17;;;10.80;99.90;;;;;;5005772;28;20060;-86
2022/11/03 01:38:33;;;;;;;12.93;2.97;;;10.80;99.90;;;;;;4972977;28;20038;-86
2022/11/03 01:40:59;;;;;;;13.50;3.00;;;10.80;99.90;;;;;;4989356;28;20045;-86
2022/11/03 01:43:27;;;;;;;12.57;2.63;;;10.80;99.90;;;;;;4960567;28;20371;-86
2022/11/03 01:46:03;;;;;;;12.73;2.80;;;10.80;99.90;;;;;;4982251;28;20312;-86
2022/11/03 01:48:29;;;;;;;15.18;2.75;;;10.80;99.90;;;;;;4981320;28;20065;-86
2022/11/03 01:50:55;;;;;;;13.82;3.38;;;10.80;99.90;;;;;;4975353;28;20050;-86
2022/11/03 01:53:21;;;;;;;12.88;2.90;;;10.80;99.90;;;;;;4975482;28;20049;-86
2022/11/03 01:55:49;;;;;;;14.20;3.15;;;10.80;99.90;;;;;;4974342;28;20038;-86
2022/11/03 01:58:22;;;;;;;13.77;2.88;;;10.80;99.90;;;;;;5011287;28;20394;-86
2022/11/03 02:00:51;;;;;;;;;;;10.70;99.90;;;;;;4990829;28;20056;-85
2022/11/03 02:03:18;;;;;;;12.95;2.63;;;10.70;99.90;;;;;;5009911;28;19928;-85
2022/11/03 02:05:45;;;;;;;14.05;2.85;;;10.70;99.90;;;;;;4978137;28;20046;-86
2022/11/03 02:08:29;;;;;;;10.70;2.90;;;10.70;99.90;;;;;;4995440;28;20129;-86
2022/11/03 02:10:56;;;;;;;13.02;2.80;;;10.70;99.90;;;;;;5009246;28;20038;-85
2022/11/03 02:13:24;;;;;;;15.20;3.20;;;10.70;99.90;;;;;;4979237;28;20049;-85
2022/11/03 02:15:53;;;;;;;14.35;3.13;;;10.70;99.90;;;;;;4989694;28;20034;-86
2022/11/03 02:18:22;;;;;;;15.43;3.10;;;10.70;99.90;;;;;;5007851;28;20033;-86
2022/11/03 02:20:56;;;;;;;13.68;2.67;;;10.70;99.90;;;;;;4991555;28;20049;-85
2022/11/03 02:23:31;;;;;;;13.18;3.35;;;10.70;99.90;;;;;;4994200;28;20535;-86
2022/11/03 02:25:58;;;;;;;13.18;3.30;;;10.70;99.90;;;;;;5004619;28;20049;-86
2022/11/03 02:28:29;;;;;;;14.52;3.10;;;11.40;99.90;;;;;;4992896;28;20049;-87
2022/11/03 02:31:07;;;;;;;12.23;2.80;;;10.70;99.90;;;;;;4994322;28;20045;-85
2022/11/03 02:33:53;;;;;;;13.82;3.13;;;10.90;99.90;;;;;;4990576;28;20042;-86
2022/11/03 02:36:26;;;;;;;15.20;2.90;;;10.70;99.90;;;;;;5008404;28;20042;-85
2022/11/03 02:38:55;;;;;;;;;;;10.70;99.90;;;;;;4994202;28;20038;-85
2022/11/03 02:41:21;;;;;;;11.07;2.58;;;10.70;99.90;;;;;;4996344;28;20310;-86
2022/11/03 02:43:48;;;;;;;14.00;3.15;;;10.70;99.90;;;;;;5003745;28;20049;-86
2022/11/03 02:46:16;;;;;;;15.23;2.75;;;10.70;99.90;;;;;;4992029;28;20403;-86
2022/11/03 02:48:41;;;;;;;15.07;3.25;;;10.70;99.90;;;;;;5005988;28;21692;-86
2022/11/03 02:51:07;;;;;;;13.30;2.75;;;10.80;99.90;;;;;;4990272;28;20125;-86
2022/11/03 02:53:42;;;;;;;14.70;2.90;;;10.70;99.90;;;;;;4983008;28;20042;-85
2022/11/03 02:56:18;;;;;;;12.93;2.67;;;10.70;99.90;;;;;;4982166;28;20168;-86
2022/11/03 02:59:03;;;;;;;16.80;2.95;;;10.70;99.90;;;;;;4992902;28;20034;-86
2022/11/03 03:01:48;;;;;;;15.75;2.70;;;10.70;99.90;;;;;;5008595;28;20592;-86
2022/11/03 03:04:31;;;;;;;15.90;2.70;;;10.70;99.90;;;;;;4992274;28;20095;-85
2022/11/03 03:07:05;;;;;;;14.80;2.90;;;10.70;99.90;;;;;;5008497;28;20030;-86
2022/11/03 03:09:52;;;;;;;12.15;3.00;;;10.70;99.90;;;;;;4994202;28;20120;-86
2022/11/03 03:12:19;;;;;;;15.40;3.05;;;10.70;99.90;;;;;;4993285;28;20053;-86
2022/11/03 03:14:48;;;;;;;12.68;2.97;;;10.70;99.90;;;;;;4992491;28;20046;-86
2022/11/03 03:17:25;;;;;;;15.32;3.20;;;10.70;99.90;;;;;;4993024;28;20066;-85
2022/11/03 03:20:13;;;;;;;13.00;2.72;;;10.70;99.90;;;;;;4992684;28;20041;-85
2022/11/03 03:22:43;;;;;;;13.38;3.38;;;10.80;99.90;;;;;;5007899;28;20052;-86
2022/11/03 03:25:30;;;;;;;13.27;3.20;;;11.00;99.90;;;;;;5003137;28;20048;-86
2022/11/03 03:28:20;;;;;;;13.15;2.88;;;10.80;99.90;;;;;;5010055;28;20120;-87
2022/11/03 03:30:47;;;;;;;13.93;3.13;;;10.80;99.90;;;;;;4995636;28;20037;-85
2022/11/03 03:33:14;;;;;;;15.07;3.22;;;10.90;99.90;;;;;;4992603;28;20072;-86
2022/11/03 03:35:43;;;;;;;14.00;3.00;;;10.80;99.90;;;;;;4999306;28;20180;-85
2022/11/03 03:38:15;;;;;;;14.38;3.10;;;10.90;99.90;;;;;;4998151;28;20050;-86
2022/11/03 03:40:44;;;;;;;13.23;2.67;;;10.90;99.90;;;;;;4987795;28;20131;-86
2022/11/03 03:43:13;;;;;;;13.25;2.90;;;10.90;99.90;;;;;;5008104;28;20388;-86
2022/11/03 03:45:41;;;;;;;13.65;2.90;;;10.90;99.90;;;;;;4992073;28;20049;-86
2022/11/03 03:48:07;;;;;;;14.52;2.83;;;10.90;99.90;;;;;;5009164;28;20570;-86
2022/11/03 03:50:37;;;;;;;14.02;3.25;;;10.90;99.90;;;;;;4974038;28;20125;-86
2022/11/03 03:53:06;;;;;;;13.07;2.88;;;10.90;99.90;;;;;;4986977;28;20044;-86
2022/11/03 03:55:37;;;;;;;13.25;3.00;;;10.90;99.90;;;;;;4991931;28;20125;-86
2022/11/03 03:58:04;;;;;;;10.65;2.30;;;10.90;99.90;;;;;;5002128;28;20038;-86
2022/11/03 04:00:30;;;;;;;15.55;3.30;;;10.90;99.90;;;;;;5009909;28;20121;-86
2022/11/03 04:02:57;;;;;;;13.23;2.90;;;10.90;99.90;;;;;;4989173;28;20121;-86
2022/11/03 04:05:24;;;;;;;10.80;2.67;;;11.00;99.90;;;;;;4980152;28;20046;-85
2022/11/03 04:07:50;;;;;;;13.30;2.80;;;11.00;99.90;;;;;;4972716;28;20042;-86
2022/11/03 04:10:19;;;;;;;13.15;3.10;;;11.00;99.90;;;;;;5008218;28;20046;-86
2022/11/03 04:23:43;;;;;;;12.38;2.88;;;10.80;99.90;;;;;;5008517;28;20046;-85
2022/11/03 04:26:14;;;;;;;11.57;2.75;;;10.80;99.90;;;;;;4988449;28;20038;-85
2022/11/03 04:28:41;;;;;;;15.75;2.95;;;10.80;99.90;;;;;;4991908;28;20046;-85
2022/11/03 04:31:12;;;;;;;16.55;3.45;;;10.80;99.90;;;;;;4973963;28;20044;-84
2022/11/03 04:33:38;;;;;;;12.98;2.95;;;10.70;99.90;;;;;;5008832;28;20462;-85
2022/11/03 04:36:14;;;;;;;13.68;2.80;;;10.70;99.90;;;;;;4974466;28;20038;-84
2022/11/03 04:38:41;;;;;;;14.73;2.95;;;10.70;99.90;;;;;;4991052;28;20033;-86
2022/11/03 04:41:15;;;;;;;13.65;2.63;;;10.70;99.90;;;;;;4986524;28;20045;-85
2022/11/03 04:43:42;;;;;;;16.80;3.50;;;10.80;99.90;;;;;;4992397;28;20042;-84
2022/11/03 04:46:15;;;;;;;10.52;2.92;;;10.80;99.90;;;;;;5005086;28;20506;-85
2022/11/03 04:48:41;;;;;;;;;;;10.80;99.90;;;;;;4988570;28;20646;-85
2022/11/03 04:51:19;;;;;;;13.77;3.00;;;10.80;99.90;;;;;;4999992;28;20394;-84
2022/11/03 04:54:03;;;;;;;12.77;2.67;;;11.00;99.90;;;;;;4989619;28;20049;-85
2022/11/03 04:56:29;;;;;;;13.88;3.10;;;10.80;99.90;;;;;;4989474;28;20050;-85
2022/11/03 04:58:57;;;;;;;12.85;3.08;;;10.80;99.90;;;;;;4989454;28;20390;-85
2022/11/03 05:01:23;;;;;;;13.32;3.17;;;10.80;99.90;;;;;;4990049;28;20037;-84
2022/11/03 05:03:52;;;;;;;16.40;3.20;;;10.80;99.90;;;;;;4954742;28;20073;-85
2022/11/03 05:06:26;;;;;;;11.40;2.95;;;10.90;99.90;;;;;;4988842;28;20053;-85
2022/11/03 05:08:59;;;;;;;15.77;3.35;;;10.80;99.90;;;;;;4992770;28;20068;-85
2022/11/03 05:11:24;;;;;;;;;;;10.90;99.90;;;;;;5007651;28;20104;-85
2022/11/03 05:13:51;;;;;;;14.02;2.97;;;10.80;99.90;;;;;;4988245;28;19990;-84
2022/11/03 05:16:17;;;;;;;15.35;2.92;;;10.90;99.90;;;;;;4990215;28;20034;-84
2022/11/03 05:18:47;;;;;;;16.80;3.33;;;11.10;99.90;;;;;;4974820;28;20039;-85
2022/11/03 05:21:16;;;;;;;16.38;2.95;;;10.80;99.90;;;;;;4990314;28;20339;-85
2022/11/03 05:24:02;;;;;;;12.60;3.25;;;10.80;99.90;;;;;;4989772;28;20128;-85
2022/11/03 05:26:33;;;;;;;12.32;3.00;;;10.80;99.90;;;;;;5007961;28;20037;-85
2022/11/03 05:29:03;;;;;;;15.73;2.92;;;10.80;99.90;;;;;;4991298;28;20038;-85
2022/11/03 05:31:32;;;;;;;12.35;2.70;;;10.80;99.90;;;;;;4985188;28;20049;-85
2022/11/03 05:34:26;;;;;;;11.13;2.88;;;10.80;99.90;;;;;;4990009;28;20033;-85
2022/11/03 05:36:52;;;;;;;;;;;10.80;99.90;;;;;;4991375;28;20038;-85
2022/11/03 05:39:29;;;;;;;12.55;2.67;;;10.70;99.90;;;;;;4991516;28;19917;-85
2022/11/03 05:41:58;;;;;;;11.45;2.47;;;10.70;99.90;;;;;;5002456;28;20125;-85
2022/11/03 05:44:39;;;;;;;13.85;2.90;;;10.70;99.90;;;;;;4978225;28;20045;-85
2022/11/03 05:47:24;;;;;;;12.98;2.97;;;10.80;99.90;;;;;;4988193;28;20176;-85
2022/11/03 05:49:55;;;;;;;13.07;3.10;;;10.70;99.90;;;;;;4998223;28;20042;-85
2022/11/03 05:52:24;;;;;;;19.10;3.60;;;10.70;99.90;;;;;;5006422;28;20045;-85
2022/11/03 05:54:51;;;;;;;10.80;2.83;;;10.70;99.90;;;;;;4990151;28;20453;-84
2022/11/03 05:57:17;;;;;;;13.27;2.97;;;10.70;99.90;;;;;;4982327;28;20069;-84
2022/11/03 05:59:46;;;;;;;14.60;3.00;;;10.70;99.90;;;;;;4960170;28;20045;-86
2022/11/03 06:02:34;;;;;;;13.30;3.22;;;10.70;99.90;;;;;;4995444;28;20041;-86
2022/11/03 06:05:01;;;;;;;11.43;2.88;;;9.80;99.90;;;;;;4982673;28;20121;-85
2022/11/03 06:07:29;;;;;;;13.45;2.80;;;10.70;99.90;;;;;;4966732;28;20060;-86
2022/11/03 06:09:54;;;;;;;13.05;2.92;;;10.70;99.90;;;;;;4972476;28;20045;-86
2022/11/03 06:12:21;;;;;;;14.45;2.88;;;10.70;99.90;;;;;;4973476;28;20041;-86
2022/11/03 06:14:48;;;;;;;11.52;2.67;;;10.70;99.90;;;;;;4979364;28;20030;-86
2022/11/03 06:17:24;;;;;;;13.38;3.35;;;10.70;99.90;;;;;;5005075;28;20049;-86
2022/11/03 06:19:56;;;;;;;13.05;3.22;;;10.70;99.90;;;;;;5008321;28;20193;-86
2022/11/03 06:22:28;;;;;;;12.75;2.80;;;10.70;99.90;;;;;;4988388;28;20187;-85
2022/11/03 06:25:15;;;;;;;13.65;3.13;;;10.70;99.90;;;;;;5004578;28;20243;-85
2022/11/03 06:27:40;;;;;;;14.57;2.95;;;10.70;99.90;;;;;;4988821;28;20142;-86
2022/11/03 06:30:33;;;;;;;11.52;2.70;;;10.70;99.90;;;;;;4988393;28;20122;-86
2022/11/03 06:33:28;;;;;;;12.55;2.72;;;10.70;99.90;;;;;;4974742;28;20049;-85
2022/11/03 06:36:00;;;;;;;11.38;3.10;;;10.70;99.90;;;;;;4991396;28;20095;-86
2022/11/03 06:38:28;;;;;;;12.55;3.53;;;10.70;99.90;;;;;;5007769;28;20049;-85
2022/11/03 06:40:55;;;;;;;10.80;2.67;;;10.70;99.90;;;;;;4993329;28;20041;-85
2022/11/03 06:43:24;;;;;;;13.63;3.58;;;10.80;99.90;;;;;;4994576;28;20045;-86
2022/11/03 06:45:53;;;;;;;13.38;3.30;;;10.70;99.90;;;;;;4994902;28;20515;-86
2022/11/03 06:48:27;;;;;;;14.13;3.03;;;10.70;99.90;;;;;;5008311;28;20538;-85
2022/11/03 06:50:54;;;;;;;15.20;3.25;;;10.70;99.90;;;;;;4978232;28;20053;-86
2022/11/03 06:53:31;;;;;;;15.38;3.80;;;11.00;99.90;;;;;;4972896;28;20053;-86
2022/11/03 06:55:58;;;;;;;13.50;3.20;;;10.80;99.90;;;;;;4991691;28;20169;-85
2022/11/03 06:58:29;;;;;;;15.93;3.17;;;10.90;99.90;;;;;;4990554;28;20117;-85
2022/11/03 07:00:58;;;;;;;14.35;3.10;;;10.80;99.90;;;;;;4993485;28;20045;-85
2022/11/03 07:03:33;;;;;;;13.32;2.83;;;10.80;99.90;;;;;;4994750;28;20049;-85
2022/11/03 07:06:24;;;;;;;14.43;3.17;;;10.80;99.90;;;;;;5011248;28;20454;-86
2022/11/03 07:08:57;;;;;;;11.20;2.80;;;10.80;99.90;;;;;;4985310;28;20065;-86
2022/11/03 07:11:29;;;;;;;11.27;3.42;;;10.80;99.90;;;;;;4989832;28;20361;-88
2022/11/03 07:13:57;;;;;;;13.48;3.10;;;10.90;99.90;;;;;;5005896;28;20052;-87
2022/11/03 07:16:30;;;;;;;15.63;2.85;;;10.90;99.90;;;;;;4991969;28;20038;-88
2022/11/03 07:18:59;;;;;;;14.05;2.95;;;10.90;99.90;;;;;;4993395;28;20034;-89
2022/11/03 07:21:30;;;;;;;13.45;3.15;;;11.00;99.90;;;;;;4993179;28;20099;-89
2022/11/03 07:23:58;;;;;;;12.43;3.00;;;10.90;99.90;;;;;;4992024;28;20061;-91
2022/11/03 07:26:26;;;;;;;12.18;3.05;;;11.00;99.90;;;;;;4994105;28;20381;-91
2022/11/03 07:28:52;;;;;;;14.00;3.63;;;12.10;99.90;;;;;;4993460;28;20050;-90
2022/11/03 07:31:27;;;;;;;14.05;3.30;;;11.00;99.90;;;;;;4982698;28;20088;-90
2022/11/03 07:33:57;;;;;;;11.07;2.80;;;11.10;99.90;;;;;;5008262;28;20050;-89
2022/11/03 07:36:26;;;;;;;14.50;3.33;;;11.20;99.90;;;;;;4994241;28;20507;-93
2022/11/03 07:38:53;;;;;;;14.18;2.80;;;11.20;99.90;;;;;;5017794;28;20045;-89
2022/11/03 07:41:27;;;;;;;10.77;2.88;;;11.30;99.90;;;;;;5003232;28;20069;-90
2022/11/03 07:44:00;;;;;;;14.02;3.25;;;11.30;99.90;;;;;;5000989;28;20123;-91
2022/11/03 07:46:26;;;;;;;14.30;3.03;;;11.30;99.90;;;;;;4992212;28;20068;-89
2022/11/03 07:49:01;;;;;;;13.48;3.20;;;11.40;99.90;;;;;;4975944;28;20061;-88
2022/11/03 07:51:40;;;;;;;13.93;3.20;;;11.40;99.90;;;;;;4990687;28;20049;-87
2022/11/03 07:54:18;;;;;;;13.68;2.95;;;11.40;99.90;;;;;;5008044;28;20042;-87
2022/11/03 07:56:48;;;;;;;12.45;2.97;;;11.50;99.90;;;;;;5005895;28;20041;-88
2022/11/03 07:59:37;;;;;;;13.95;3.20;;;11.50;99.90;;;;;;4991865;28;20042;-91
2022/11/03 08:02:31;;;;;;;13.23;3.22;;;11.50;99.90;;;;;;4991691;28;20041;-92
2022/11/03 08:04:57;;;;;;;12.43;3.15;;;11.60;99.90;;;;;;4997369;28;20037;-89
2022/11/03 08:07:23;;;;;;;11.73;3.03;;;11.60;99.90;;;;;;4976614;28;20042;-87
2022/11/03 08:09:50;;;;;;;12.50;3.25;;;11.70;99.90;;;;;;5009555;28;20045;-89
2022/11/03 08:12:15;;;;;;;13.40;3.13;;;11.70;99.90;;;;;;4976049;28;20037;-88
2022/11/03 08:14:41;;;;;;;13.65;3.50;;;11.80;99.90;;;;;;4991718;28;20509;-87
2022/11/03 08:17:08;;;;;;;11.40;3.28;;;11.80;99.90;;;;;;4989396;28;20521;-87
2022/11/03 08:19:33;;;;;;;11.45;3.00;;;11.90;99.90;;;;;;4975412;28;20042;-89
2022/11/03 08:21:59;;;;;;;9.80;2.80;;;11.90;99.90;;;;;;4984079;28;20072;-87
2022/11/03 08:24:25;;;;;;;11.43;2.90;;;12.00;99.90;;;;;;4996244;28;20049;-88
2022/11/03 08:26:51;;;;;;;10.68;3.00;;;;;;;;;;4995304;28;20625;-86
2022/11/03 08:29:17;;;;;;;14.88;3.22;;;12.10;99.90;;;;;;4990358;28;20065;-88
2022/11/03 08:31:43;;;;;;;12.60;3.05;;;12.20;99.90;;;;;;4992970;28;20070;-85
2022/11/03 08:34:09;;;;;;;11.63;2.90;;;12.30;99.90;;;;;;4975746;28;20046;-85
2022/11/03 08:36:36;;;;;;;12.45;2.95;;;12.30;99.90;;;;;;4992310;28;20402;-86
2022/11/03 08:39:02;;;;;;;10.95;2.90;;;12.40;99.90;;;;;;4989883;28;20042;-86
2022/11/03 08:41:28;;;;;;;16.67;3.65;;;12.50;99.90;;;;;;4959503;28;20045;-87
2022/11/03 08:43:53;;;;;;;14.18;3.47;;;12.50;99.90;;;;;;4995971;28;20045;-87
2022/11/03 08:46:19;;;;;;;12.10;2.70;;;12.60;99.90;;;;;;4957423;28;20406;-85
2022/11/03 08:48:45;;;;;;;10.27;3.00;;;12.70;99.90;;;;;;4978926;28;20057;-88
2022/11/03 08:51:12;;;;;;;13.30;3.20;;;13.30;99.90;;;;;;4975272;28;20486;-87
2022/11/03 08:53:38;;;;;;;14.25;3.30;;;12.70;99.90;;;;;;4967927;28;20044;-86
2022/11/03 08:56:05;;;;;;;14.60;2.80;;;12.80;99.90;;;;;;4972479;28;20794;-86
2022/11/03 08:58:31;;;;;;;13.98;3.08;;;12.70;99.90;;;;;;5009091;28;20441;-86
2022/11/03 09:00:56;;;;;;;12.60;3.22;;;12.80;99.90;;;;;;4991276;28;20041;-87
2022/11/03 09:03:22;;;;;;;13.52;3.22;;;12.80;99.90;;;;;;4998728;28;20124;-86
2022/11/03 09:05:48;;;;;;;13.43;3.15;;;12.80;99.90;;;;;;4980387;28;20099;-86
2022/11/03 09:08:14;;;;;;;14.30;2.92;;;12.90;99.90;;;;;;4992079;28;20068;-87
2022/11/03 09:10:39;;;;;;;9.63;2.65;;;12.80;99.90;;;;;;4991496;28;20384;-88
2022/11/03 09:13:05;;;;;;;12.23;3.25;;;12.90;99.90;;;;;;4954018;28;20030;-88
2022/11/03 09:15:34;;;;;;;10.77;2.90;;;12.80;99.90;;;;;;4950640;28;20451;-87
2022/11/03 09:18:00;;;;;;;13.55;3.42;;;12.90;99.90;;;;;;5002656;28;20060;-89
2022/11/03 09:20:25;;;;;;;11.93;3.30;;;12.90;99.90;;;;;;4989143;28;20042;-87
2022/11/03 09:22:52;;;;;;;13.05;3.13;;;12.90;99.90;;;;;;5004716;28;20138;-88
2022/11/03 09:25:18;;;;;;;12.20;3.35;;;13.00;99.90;;;;;;4986571;28;20045;-87
2022/11/03 09:27:44;;;;;;;15.18;3.28;;;13.00;99.90;;;;;;4991741;28;20041;-88
2022/11/03 09:30:10;;;;;;;12.13;3.03;;;13.00;99.90;;;;;;4989965;28;20050;-88
2022/11/03 09:32:37;;;;;;;11.30;3.20;;;13.00;99.90;;;;;;4991053;28;20074;-87
2022/11/03 09:35:04;;;;;;;11.20;3.25;;;13.10;99.90;;;;;;4975089;28;20053;-88
2022/11/03 09:37:29;;;;;;;13.43;3.05;;;13.20;99.90;;;;;;4993179;28;20395;-89
2022/11/03 09:39:55;;;;;;;12.55;3.20;;;13.20;99.90;;;;;;4970460;28;20031;-89
2022/11/03 09:42:21;;;;;;;12.65;3.55;;;13.20;99.90;;;;;;4974025;28;20061;-89
2022/11/03 09:44:49;;;;;;;13.98;3.45;;;14.40;99.90;;;;;;4975581;28;20042;-89
2022/11/03 09:47:23;;;;;;;10.43;2.67;;;13.30;99.90;;;;;;4972730;28;20476;-89
2022/11/03 09:49:49;;;;;;;13.48;3.25;;;13.40;99.90;;;;;;4978415;28;20049;-89
2022/11/03 09:52:20;;;;;;;11.45;2.88;;;13.40;99.90;;;;;;4987322;28;20050;-88
2022/11/03 09:54:45;;;;;;;14.23;3.60;;;13.50;99.90;;;;;;4990756;28;20054;-89
2022/11/03 09:57:14;;;;;;;11.48;2.67;;;13.50;99.90;;;;;;4976171;28;20136;-88
2022/11/03 09:59:43;;;;;;;11.57;2.90;;;13.60;99.90;;;;;;5005162;28;20037;-88
2022/11/03 10:02:26;;;;;;;11.32;2.88;;;13.70;99.90;;;;;;4990566;28;20125;-87
2022/11/03 10:04:55;;;;;;;13.43;3.38;;;13.70;99.90;;;;;;4979848;28;20503;-87
2022/11/03 10:07:21;;;;;;;12.00;3.08;;;13.80;99.90;;;;;;4990688;28;20116;-87
2022/11/03 10:09:49;;;;;;;12.75;3.63;;;13.80;99.90;;;;;;4975844;28;20042;-90
2022/11/03 10:12:15;;;;;;;12.55;2.90;;;13.90;99.90;;;;;;4972416;28;20065;-90
2022/11/03 10:14:44;;;;;;;11.23;3.13;;;14.00;99.90;;;;;;4966057;28;20038;-89
2022/11/03 10:17:22;;;;;;;12.13;2.80;;;14.10;99.90;;;;;;4988092;28;20105;-90
2022/11/03 10:19:54;;;;;;;14.95;3.42;;;14.10;99.90;;;;;;4994412;28;20049;-89
2022/11/03 10:22:20;;;;;;;11.20;3.23;;;14.20;99.90;;;;;;4993796;28;20049;-88
2022/11/03 10:24:46;;;;;;;14.27;2.80;;;14.30;99.90;;;;;;4974606;28;20038;-88
2022/11/03 10:27:27;;;;;;;16.17;3.78;;;14.30;99.90;;;;;;4992165;28;20038;-94
2022/11/03 10:30:10;;;;;;;12.45;2.97;;;14.30;99.90;;;;;;4991481;28;20104;-88
2022/11/03 10:32:37;;;;;;;10.68;3.03;;;14.30;99.90;;;;;;4983802;28;20048;-88
2022/11/03 10:35:33;;;;;;;10.68;2.78;;;14.30;99.90;;;;;;4976094;28;20046;-86
2022/11/03 10:38:26;;;;;;;11.63;3.42;;;14.30;99.90;;;;;;4990970;28;20119;-88
2022/11/03 10:40:52;;;;;;;14.40;3.13;;;14.30;99.90;;;;;;4998379;28;20037;-89
2022/11/03 10:43:18;;;;;;;12.93;3.03;;;14.30;99.90;;;;;;4993461;28;20376;-87
2022/11/03 10:45:44;;;;;;;13.45;2.88;;;14.30;99.90;;;;;;4967129;28;20045;-88
2022/11/03 10:48:10;;;;;;;12.02;3.10;;;14.40;99.90;;;;;;4985871;28;20060;-86
2022/11/03 10:50:38;;;;;;;14.93;3.15;;;14.40;99.90;;;;;;4994899;28;20050;-88
2022/11/03 10:53:05;;;;;;;12.75;2.75;;;14.60;99.90;;;;;;4994203;28;20038;-90
2022/11/03 10:55:31;;;;;;;15.23;3.70;;;14.70;99.90;;;;;;4976053;28;20042;-89
2022/11/03 10:57:57;;;;;;;12.15;3.05;;;14.90;99.90;;;;;;5007476;28;20402;-87
2022/11/03 11:00:23;;;;;;;9.10;2.67;;;15.00;99.90;;;;;;4996362;28;20034;-89
2022/11/03 11:02:57;;;;;;;10.82;3.17;;;15.10;99.90;;;;;;5001968;28;20045;-88
2022/11/03 11:05:23;;;;;;;13.55;2.83;;;15.20;99.90;;;;;;4992267;28;20049;-86
2022/11/03 11:07:51;;;;;;;12.13;2.88;;;15.30;99.90;;;;;;5005505;28;20232;-87
2022/11/03 11:10:25;;;;;;;13.27;2.90;;;15.30;99.90;;;;;;4990311;28;20041;-87
2022/11/03 11:13:23;;;;;;;12.23;2.70;;;15.40;99.90;;;;;;5011373;28;20145;-87
2022/11/03 11:15:55;;;;;;;11.32;2.85;;;15.40;99.90;;;;;;4991833;28;20140;-86
2022/11/03 11:18:27;;;;;;;12.45;2.90;;;15.40;99.90;;;;;;5026711;28;20659;-87
2022/11/03 11:20:54;;;;;;;12.23;2.88;;;15.40;99.90;;;;;;5002877;28;20053;-88
2022/11/03 11:23:25;;;;;;;9.88;2.85;;;15.40;99.90;;;;;;4978364;28;20034;-87
2022/11/03 11:26:09;;;;;;;10.27;2.53;;;15.40;99.90;;;;;;5010558;28;20101;-87
2022/11/03 11:28:41;;;;;;;10.68;2.60;;;15.50;99.90;;;;;;4993610;28;20042;-87
2022/11/03 11:31:31;;;;;;;10.88;2.40;;;15.50;99.90;;;;;;4994482;28;20064;-87
2022/11/03 11:34:09;;;;;;;11.13;2.70;;;15.60;99.90;;;;;;4981633;28;20042;-88
2022/11/03 11:36:44;;;;;;;13.88;3.15;;;15.70;99.90;;;;;;4980871;28;21394;-87
2022/11/03 11:39:19;;;;;;;11.82;2.97;;;15.70;99.90;;;;;;4990067;28;20395;-88
2022/11/03 11:42:08;;;;;;;10.75;2.60;;;15.70;99.90;;;;;;4988039;28;20038;-87
2022/11/03 11:44:44;;;;;;;10.02;2.50;;;15.60;99.90;;;;;;4997911;28;20049;-87
2022/11/03 11:47:32;;;;;;;10.45;2.65;;;15.50;99.90;;;;;;5008168;28;20580;-87
2022/11/03 11:50:14;;;;;;;10.02;2.70;;;15.50;99.90;;;;;;4991640;28;20088;-91
2022/11/03 11:52:57;;;;;;;12.07;2.83;;;15.40;99.90;;;;;;4992581;28;20045;-90
2022/11/03 11:55:47;;;;;;;9.02;2.60;;;15.50;99.90;;;;;;4994643;28;20064;-88
2022/11/03 11:58:24;;;;;;;12.30;2.70;;;15.40;99.90;;;;;;4994511;28;20074;-89
2022/11/03 12:01:04;;;;;;;10.70;2.72;;;15.40;99.90;;;;;;4993437;28;20502;-89
2022/11/03 12:03:44;;;;;;;11.55;2.45;;;15.40;99.90;;;;;;4991464;28;20053;-88
2022/11/03 12:06:12;;;;;;;13.38;2.80;;;15.40;99.90;;;;;;4976345;28;20511;-87
2022/11/03 12:08:38;;;;;;;10.13;2.65;;;15.40;99.90;;;;;;5009144;28;20164;-89
2022/11/03 12:11:05;;;;;;;12.95;2.70;;;15.40;99.90;;;;;;4972166;28;20117;-90
2022/11/03 12:13:48;;;;;;;12.50;3.00;;;15.40;99.90;;;;;;5005842;28;20127;-88
2022/11/03 12:16:33;;;;;;;15.57;3.22;;;15.40;99.90;;;;;;5010070;28;20057;-86
2022/11/03 12:19:37;;;;;;;11.05;2.88;;;15.30;99.90;;;;;;4974357;28;20044;-88
2022/11/03 12:22:04;;;;;;;;;;;15.30;99.90;;;;;;4997141;28;20038;-88
2022/11/03 12:24:30;;;;;;;12.32;2.63;;;15.20;99.90;;;;;;4987801;28;20332;-87
2022/11/03 12:26:56;;;;;;;12.52;2.60;;;15.20;99.90;;;;;;4996227;28;20038;-89
2022/11/03 12:29:22;;;;;;;10.57;2.80;;;15.10;99.90;;;;;;4974403;28;20077;-88
2022/11/03 12:31:48;;;;;;;10.57;2.83;;;15.10;99.90;;;;;;4967420;28;20069;-87
2022/11/03 12:34:15;;;;;;;13.40;3.08;;;15.10;99.90;;;;;;4961363;28;20554;-87
2022/11/03 12:36:41;;;;;;;14.07;3.05;;;15.10;99.90;;;;;;5008145;28;20049;-87
2022/11/03 12:39:07;;;;;;;10.32;2.70;;;15.00;99.90;;;;;;5007465;28;20037;-88
2022/11/03 12:41:33;;;;;;;10.40;2.83;;;15.00;99.90;;;;;;4977073;28;20045;-88
2022/11/03 12:43:59;;;;;;;10.50;2.50;;;15.00;99.90;;;;;;4975445;28;20304;-87
2022/11/03 12:46:24;;;;;;;8.80;2.55;;;14.90;99.90;;;;;;4981507;28;20510;-89
2022/11/03 12:48:51;;;;;;;11.90;2.53;;;14.90;99.90;;;;;;5007893;28;20146;-89
2022/11/03 12:51:19;;;;;;;11.90;2.80;;;14.90;99.90;;;;;;4969130;28;20034;-90
2022/11/03 12:53:45;;;;;;;13.23;3.03;;;14.90;99.90;;;;;;4985318;28;20424;-88
2022/11/03 12:56:12;;;;;;;11.02;3.00;;;14.90;99.90;;;;;;4986734;28;20066;-90
2022/11/03 12:58:38;;;;;;;11.63;2.60;;;14.90;99.90;;;;;;4993488;28;20042;-92
2022/11/03 13:01:05;;;;;;;11.93;2.90;;;14.80;99.90;;;;;;4965390;28;20029;-91
2022/11/03 13:03:31;;;;;;;13.02;2.72;;;14.80;99.90;;;;;;4991290;28;20504;-90
2022/11/03 13:05:57;;;;;;;8.70;2.30;;;14.80;99.90;;;;;;4973353;28;20088;-90
2022/11/03 13:08:23;;;;;;;9.43;2.53;;;14.90;99.90;;;;;;4970121;28;20185;-88
2022/11/03 13:10:50;;;;;;;11.07;2.60;;;14.90;99.90;;;;;;4972616;28;20041;-90
2022/11/03 13:13:16;;;;;;;9.98;2.40;;;14.90;99.90;;;;;;4969636;28;20494;-89